createdAt,value
2018-11-02T00:02:17.457Z,5.80
2018-11-02T00:04:46.182Z,5.70
2018-11-02T00:07:15.207Z,5.60
2018-11-02T00:09:44.185Z,5.50
2018-11-02T00:12:13.702Z,5.50
2018-11-02T00:14:42.484Z,5.30
2018-11-02T00:17:11.282Z,5.20
2018-11-02T00:19:40.068Z,5.20
2018-11-02T00:22:09.289Z,5.10
2018-11-02T00:24:38.007Z,5.00
2018-11-02T00:27:06.961Z,5.00
2018-11-02T00:29:36.460Z,4.90
2018-11-02T00:32:05.420Z,4.90
2018-11-02T00:34:34.219Z,5.00
2018-11-02T00:37:03.697Z,5.10
2018-11-02T00:39:32.498Z,5.10
2018-11-02T00:42:14.123Z,5.10
2018-11-02T00:44:43.066Z,5.10
2018-11-02T00:47:11.952Z,5.00
2018-11-02T00:49:40.846Z,4.90
2018-11-02T00:52:09.764Z,4.80
2018-11-02T00:54:38.485Z,4.70
2018-11-02T00:57:07.309Z,4.70
2018-11-02T00:59:36.758Z,4.70
2018-11-02T01:02:06.278Z,4.70
2018-11-02T01:04:35.204Z,4.80
2018-11-02T01:07:04.027Z,4.80
2018-11-02T01:09:32.789Z,4.90
2018-11-02T01:12:01.617Z,4.80
2018-11-02T01:14:30.384Z,4.70
2018-11-02T01:16:59.316Z,4.70
2018-11-02T01:19:34.434Z,4.70
2018-11-02T01:22:04.980Z,4.60
2018-11-02T01:24:33.934Z,4.60
2018-11-02T01:27:02.744Z,4.50
2018-11-02T01:29:31.751Z,4.50
2018-11-02T01:32:00.551Z,4.50
2018-11-02T01:34:29.334Z,4.40
2018-11-02T01:36:58.141Z,4.20
2018-11-02T01:39:26.906Z,4.10
2018-11-02T01:41:55.689Z,4.00
2018-11-02T01:44:24.652Z,4.10
2018-11-02T01:46:53.522Z,4.00
2018-11-02T01:49:22.393Z,4.00
2018-11-02T01:51:51.453Z,3.90
2018-11-02T01:54:20.333Z,4.00
2018-11-02T01:56:49.132Z,4.10
2018-11-02T01:59:18.025Z,4.10
2018-11-02T02:01:46.814Z,4.10
2018-11-02T02:04:15.705Z,4.10
2018-11-02T02:06:44.419Z,4.10
2018-11-02T02:09:13.297Z,4.10
2018-11-02T02:11:42.224Z,4.20
2018-11-02T02:14:11.208Z,4.10
2018-11-02T02:16:39.972Z,4.20
2018-11-02T02:19:08.936Z,4.20
2018-11-02T02:21:39.269Z,4.30
2018-11-02T02:24:08.304Z,4.30
2018-11-02T02:26:37.657Z,4.30
2018-11-02T02:29:06.748Z,4.30
2018-11-02T02:31:35.765Z,4.50
2018-11-02T02:34:04.558Z,4.60
2018-11-02T02:39:27.120Z,5.00
2018-11-02T02:41:55.966Z,5.20
2018-11-02T02:44:24.737Z,5.30
2018-11-02T02:46:53.809Z,5.30
2018-11-02T02:49:22.703Z,5.40
2018-11-02T02:51:51.567Z,5.60
2018-11-02T02:54:20.502Z,5.60
2018-11-02T02:56:49.884Z,5.60
2018-11-02T02:59:18.920Z,5.50
2018-11-02T03:01:48.245Z,5.40
2018-11-02T03:04:17.544Z,5.40
2018-11-02T03:06:46.304Z,5.20
2018-11-02T03:09:15.111Z,5.10
2018-11-02T03:11:43.849Z,4.90
2018-11-02T03:14:12.634Z,4.80
2018-11-02T03:16:41.461Z,4.80
2018-11-02T03:19:10.210Z,4.70
2018-11-02T03:21:39.159Z,4.60
2018-11-02T03:24:08.366Z,4.50
2018-11-02T03:26:37.529Z,4.40
2018-11-02T03:29:07.341Z,4.10
2018-11-02T03:31:36.154Z,3.90
2018-11-02T03:34:05.493Z,3.80
2018-11-02T03:36:34.288Z,3.70
2018-11-02T03:39:03.737Z,3.60
2018-11-02T03:41:32.577Z,3.70
2018-11-02T03:44:01.415Z,3.70
2018-11-02T03:46:30.341Z,3.70
2018-11-02T03:48:59.226Z,3.90
2018-11-02T03:51:28.676Z,4.00
2018-11-02T03:53:57.425Z,4.20
2018-11-02T03:56:26.372Z,4.40
2018-11-02T03:58:55.171Z,4.50
2018-11-02T04:01:23.942Z,4.60
2018-11-02T04:03:52.733Z,4.70
2018-11-02T04:06:21.568Z,4.80
2018-11-02T04:08:51.338Z,4.90
2018-11-02T04:11:20.169Z,4.90
2018-11-02T04:13:48.989Z,4.90
2018-11-02T04:16:17.893Z,4.90
2018-11-02T04:18:46.683Z,4.90
2018-11-02T04:21:15.521Z,4.90
2018-11-02T04:23:44.375Z,4.90
2018-11-02T04:26:13.280Z,4.90
2018-11-02T04:28:42.229Z,4.90
2018-11-02T04:31:11.277Z,5.00
2018-11-02T04:33:39.913Z,5.00
2018-11-02T04:36:08.863Z,5.00
2018-11-02T04:38:37.717Z,5.10
2018-11-02T04:41:06.518Z,5.10
2018-11-02T04:43:35.405Z,5.20
2018-11-02T04:46:04.176Z,5.20
2018-11-02T04:48:33.093Z,5.20
2018-11-02T04:51:02.095Z,5.20
2018-11-02T04:53:30.712Z,5.20
2018-11-02T04:55:59.500Z,5.10
2018-11-02T04:58:28.294Z,5.10
2018-11-02T05:00:57.081Z,5.20
2018-11-02T05:03:25.827Z,5.20
2018-11-02T05:05:54.727Z,5.30
2018-11-02T05:08:23.500Z,5.30
2018-11-02T05:10:52.337Z,5.40
2018-11-02T05:13:21.173Z,5.40
2018-11-02T05:15:50.445Z,5.40
2018-11-02T05:18:19.922Z,5.40
2018-11-02T05:20:48.816Z,5.40
2018-11-02T05:23:17.573Z,5.40
2018-11-02T05:25:46.620Z,5.50
2018-11-02T05:28:15.509Z,5.50
2018-11-02T05:30:45.134Z,5.40
2018-11-02T05:33:14.033Z,5.40
2018-11-02T05:35:42.791Z,5.50
2018-11-02T05:38:11.764Z,5.50
2018-11-02T05:40:52.190Z,5.50
2018-11-02T05:43:21.072Z,5.50
2018-11-02T05:49:03.268Z,5.50
2018-11-02T05:51:32.054Z,5.40
2018-11-02T05:54:02.810Z,5.40
2018-11-02T05:56:32.624Z,5.50
2018-11-02T05:59:02.071Z,5.50
2018-11-02T06:01:31.435Z,5.50
2018-11-02T06:04:00.196Z,5.50
2018-11-02T06:06:29.013Z,5.50
2018-11-02T06:08:58.016Z,5.50
2018-11-02T06:11:27.544Z,5.50
2018-11-02T06:13:56.365Z,5.50
2018-11-02T06:16:25.371Z,5.50
2018-11-02T06:18:58.453Z,5.60
2018-11-02T06:21:27.306Z,5.60
2018-11-02T06:24:00.361Z,5.60
2018-11-02T06:26:35.139Z,5.60
2018-11-02T06:29:04.652Z,5.70
2018-11-02T06:31:33.731Z,5.70
2018-11-02T06:34:09.513Z,5.70
2018-11-02T06:36:38.286Z,5.80
2018-11-02T06:39:08.772Z,5.80
2018-11-02T06:41:37.667Z,5.80
2018-11-02T06:44:07.610Z,5.90
2018-11-02T06:46:37.085Z,5.90
2018-11-02T06:49:05.869Z,5.90
2018-11-02T06:51:35.444Z,6.00
2018-11-02T06:54:04.611Z,6.00
2018-11-02T06:56:33.421Z,6.00
2018-11-02T06:59:02.230Z,6.20
2018-11-02T07:01:31.125Z,6.30
2018-11-02T07:04:00.042Z,6.30
2018-11-02T07:06:28.796Z,6.40
2018-11-02T07:08:57.939Z,6.40
2018-11-02T07:11:26.734Z,6.40
2018-11-02T07:13:55.618Z,6.40
2018-11-02T07:16:24.554Z,6.30
2018-11-02T07:18:53.328Z,6.20
2018-11-02T07:21:22.114Z,6.20
2018-11-02T07:23:51.066Z,6.20
2018-11-02T07:26:19.776Z,6.40
2018-11-02T07:28:48.501Z,6.70
2018-11-02T07:31:17.318Z,7.10
2018-11-02T07:33:46.209Z,7.50
2018-11-02T07:36:15.066Z,7.80
2018-11-02T07:39:00.189Z,8.20
2018-11-02T07:41:29.718Z,8.50
2018-11-02T07:43:58.721Z,8.60
2018-11-02T07:46:27.509Z,8.70
2018-11-02T07:48:56.290Z,8.70
2018-11-02T07:51:25.308Z,8.80
2018-11-02T07:53:54.126Z,9.00
2018-11-02T07:56:23.104Z,9.10
2018-11-02T07:58:55.569Z,9.30
2018-11-02T08:01:25.147Z,9.60
2018-11-02T08:03:57.212Z,9.80
2018-11-02T08:06:33.298Z,10.10
2018-11-02T08:09:09.865Z,10.40
2018-11-02T08:11:39.233Z,10.70
2018-11-02T08:14:08.193Z,10.90
2018-11-02T08:16:49.124Z,11.50
2018-11-02T08:19:17.976Z,12.10
2018-11-02T08:21:47.546Z,12.20
2018-11-02T08:24:16.627Z,12.40
2018-11-02T08:26:46.350Z,12.70
2018-11-02T08:29:24.860Z,12.30
2018-11-02T08:31:53.802Z,12.20
2018-11-02T08:34:22.498Z,11.50
2018-11-02T08:36:51.559Z,11.30
2018-11-02T08:39:20.317Z,11.20
2018-11-02T08:41:49.162Z,10.90
2018-11-02T08:44:18.127Z,10.50
2018-11-02T08:46:46.843Z,10.50
2018-11-02T08:49:22.621Z,10.50
2018-11-02T08:51:55.021Z,10.70
2018-11-02T08:54:23.768Z,10.70
2018-11-02T08:56:53.206Z,10.80
2018-11-02T08:59:41.035Z,11.00
2018-11-02T09:02:10.021Z,11.10
2018-11-02T09:04:39.630Z,11.40
2018-11-02T09:07:11.829Z,11.40
2018-11-02T09:09:40.662Z,11.50
2018-11-02T09:12:09.659Z,11.70
2018-11-02T09:14:38.436Z,11.90
2018-11-02T09:17:07.813Z,12.00
2018-11-02T09:19:36.681Z,12.00
2018-11-02T09:22:05.641Z,12.00
2018-11-02T09:24:34.495Z,12.00
2018-11-02T09:27:04.327Z,12.00
2018-11-02T09:29:33.328Z,12.00
2018-11-02T09:32:02.779Z,12.00
2018-11-02T09:34:31.992Z,12.00
2018-11-02T09:37:00.918Z,12.00
2018-11-02T09:39:29.816Z,11.90
2018-11-02T09:41:59.677Z,11.80
2018-11-02T09:44:28.619Z,11.80
2018-11-02T09:46:58.124Z,11.80
2018-11-02T09:49:27.255Z,11.90
2018-11-02T09:51:56.125Z,11.70
2018-11-02T09:54:24.960Z,11.70
2018-11-02T09:56:53.941Z,11.70
2018-11-02T09:59:23.082Z,11.80
2018-11-02T10:01:52.548Z,11.80
2018-11-02T10:04:21.347Z,11.80
2018-11-02T10:06:50.186Z,11.90
2018-11-02T10:09:19.189Z,11.90
2018-11-02T10:11:48.275Z,12.00
2018-11-02T10:14:17.168Z,12.20
2018-11-02T10:16:46.109Z,12.40
2018-11-02T10:19:14.979Z,12.80
2018-11-02T10:21:43.987Z,13.10
2018-11-02T10:24:13.507Z,13.60
2018-11-02T10:26:46.178Z,14.70
2018-11-02T10:29:15.064Z,15.40
2018-11-02T10:31:44.025Z,16.50
2018-11-02T10:34:13.061Z,17.70
2018-11-02T10:36:42.250Z,18.60
2018-11-02T10:39:12.871Z,18.90
2018-11-02T10:41:44.927Z,19.60
2018-11-02T10:44:15.198Z,19.80
2018-11-02T10:46:45.424Z,19.70
2018-11-02T10:49:14.620Z,19.20
2018-11-02T10:51:43.492Z,18.90
2018-11-02T10:54:14.413Z,18.70
2018-11-02T10:56:43.229Z,18.30
2018-11-02T10:59:12.396Z,17.50
2018-11-02T11:01:46.425Z,17.40
2018-11-02T11:04:15.805Z,17.30
2018-11-02T11:06:44.710Z,17.20
2018-11-02T11:09:14.264Z,16.90
2018-11-02T11:11:43.305Z,16.30
2018-11-02T11:14:13.754Z,15.70
2018-11-02T11:16:42.824Z,15.80
2018-11-02T11:19:12.014Z,16.10
2018-11-02T11:21:42.084Z,15.80
2018-11-02T11:24:11.658Z,15.70
2018-11-02T11:26:50.866Z,15.40
2018-11-02T11:29:19.865Z,15.00
2018-11-02T11:31:48.731Z,14.50
2018-11-02T11:34:17.954Z,14.30
2018-11-02T11:36:47.461Z,14.10
2018-11-02T11:39:16.639Z,14.10
2018-11-02T11:41:45.685Z,13.70
2018-11-02T11:44:15.199Z,13.50
2018-11-02T11:46:44.212Z,13.50
2018-11-02T11:49:14.114Z,13.60
2018-11-02T11:51:42.807Z,13.60
2018-11-02T11:54:11.630Z,13.50
2018-11-02T11:56:40.392Z,13.40
2018-11-02T11:59:09.544Z,13.10
2018-11-02T12:01:38.521Z,12.80
2018-11-02T12:04:07.596Z,13.00
2018-11-02T12:06:36.498Z,13.30
2018-11-02T12:09:06.617Z,13.70
2018-11-02T12:11:35.584Z,14.00
2018-11-02T12:14:04.720Z,14.20
2018-11-02T12:16:34.050Z,14.20
2018-11-02T12:19:02.884Z,14.20
2018-11-02T12:21:31.835Z,14.10
2018-11-02T12:24:00.632Z,14.10
2018-11-02T12:26:30.012Z,13.70
2018-11-02T12:28:58.961Z,13.30
2018-11-02T12:31:27.818Z,13.20
2018-11-02T12:33:56.703Z,13.20
2018-11-02T12:36:25.781Z,13.30
2018-11-02T12:38:54.646Z,13.40
2018-11-02T12:41:23.510Z,13.30
2018-11-02T12:43:52.603Z,13.10
2018-11-02T12:46:21.774Z,13.20
2018-11-02T12:48:50.950Z,13.20
2018-11-02T12:51:19.738Z,13.20
2018-11-02T12:53:48.622Z,13.30
2018-11-02T12:56:17.733Z,13.30
2018-11-02T12:58:46.557Z,13.30
2018-11-02T13:01:15.444Z,13.40
2018-11-02T13:03:44.379Z,13.40
2018-11-02T13:06:13.339Z,13.30
2018-11-02T13:08:42.428Z,13.60
2018-11-02T13:11:11.377Z,13.70
2018-11-02T13:13:40.386Z,13.70
2018-11-02T13:16:09.590Z,13.60
2018-11-02T13:18:38.423Z,13.40
2018-11-02T13:21:07.585Z,13.50
2018-11-02T13:23:36.483Z,13.00
2018-11-02T13:26:06.661Z,12.70
2018-11-02T13:28:35.296Z,12.30
2018-11-02T13:31:04.294Z,12.20
2018-11-02T13:33:33.112Z,12.10
2018-11-02T13:36:02.204Z,12.00
2018-11-02T13:38:31.239Z,11.90
2018-11-02T13:41:00.147Z,11.90
2018-11-02T13:43:29.192Z,12.00
2018-11-02T13:45:58.104Z,12.00
2018-11-02T13:48:29.158Z,12.00
2018-11-02T13:50:58.670Z,12.10
2018-11-02T13:53:27.934Z,12.10
2018-11-02T13:55:56.927Z,12.10
2018-11-02T13:58:26.690Z,12.20
2018-11-02T14:00:56.623Z,12.30
2018-11-02T14:03:25.897Z,12.40
2018-11-02T14:05:54.625Z,12.40
2018-11-02T14:08:23.447Z,12.50
2018-11-02T14:10:52.396Z,12.40
2018-11-02T14:13:21.359Z,12.40
2018-11-02T14:15:50.212Z,12.30
2018-11-02T14:18:19.175Z,12.30
2018-11-02T14:20:48.071Z,12.30
2018-11-02T14:23:16.921Z,12.20
2018-11-02T14:25:45.808Z,12.20
2018-11-02T14:28:14.804Z,12.20
2018-11-02T14:30:44.275Z,12.10
2018-11-02T14:33:13.208Z,12.20
2018-11-02T14:35:42.231Z,12.20
2018-11-02T14:38:11.094Z,12.10
2018-11-02T14:40:40.096Z,12.00
2018-11-02T14:43:14.351Z,11.90
2018-11-02T14:45:43.520Z,11.90
2018-11-02T14:48:12.733Z,11.90
2018-11-02T14:50:51.734Z,11.70
2018-11-02T14:53:20.637Z,11.70
2018-11-02T14:55:49.608Z,11.60
2018-11-02T14:58:18.517Z,11.70
2018-11-02T15:00:49.673Z,11.60
2018-11-02T15:03:18.534Z,11.50
2018-11-02T15:05:47.466Z,11.40
2018-11-02T15:08:16.419Z,11.20
2018-11-02T15:10:45.597Z,11.10
2018-11-02T15:13:14.646Z,11.00
2018-11-02T15:15:43.664Z,10.90
2018-11-02T15:18:12.615Z,10.80
2018-11-02T15:20:41.569Z,10.70
2018-11-02T15:23:10.663Z,10.60
2018-11-02T15:25:39.522Z,10.70
2018-11-02T15:28:08.358Z,10.70
2018-11-02T15:30:37.243Z,10.60
2018-11-02T15:33:06.762Z,10.60
2018-11-02T15:35:35.765Z,10.60
2018-11-02T15:38:04.798Z,10.50
2018-11-02T15:40:33.835Z,10.50
2018-11-02T15:43:02.677Z,10.40
2018-11-02T15:45:33.612Z,10.40
2018-11-02T15:48:02.513Z,10.30
2018-11-02T15:50:31.353Z,10.20
2018-11-02T15:53:00.247Z,10.20
2018-11-02T15:55:29.710Z,10.10
2018-11-02T15:57:58.591Z,10.00
2018-11-02T16:00:27.723Z,10.00
2018-11-02T16:02:56.462Z,9.90
2018-11-02T16:08:20.159Z,9.70
2018-11-02T16:10:49.033Z,9.60
2018-11-02T16:13:17.974Z,9.60
2018-11-02T16:15:46.932Z,9.50
2018-11-02T16:18:16.019Z,9.40
2018-11-02T16:20:44.844Z,9.40
2018-11-02T16:23:14.528Z,9.30
2018-11-02T16:25:43.388Z,9.30
2018-11-02T16:28:12.269Z,9.20
2018-11-02T16:30:41.175Z,9.10
2018-11-02T16:33:09.989Z,9.10
2018-11-02T16:35:38.875Z,9.10
2018-11-02T16:38:10.891Z,9.10
2018-11-02T16:40:39.929Z,9.00
2018-11-02T16:43:08.962Z,9.00
2018-11-02T16:45:38.481Z,9.00
2018-11-02T16:48:07.529Z,8.90
2018-11-02T16:50:36.258Z,8.90
2018-11-02T16:53:05.377Z,8.90
2018-11-02T16:55:34.433Z,8.90
2018-11-02T16:58:03.462Z,9.00
2018-11-02T17:00:32.260Z,9.00
2018-11-02T17:03:01.154Z,9.00
2018-11-02T17:05:30.218Z,9.00
2018-11-02T17:07:59.706Z,9.10
2018-11-02T17:10:28.726Z,9.00
2018-11-02T17:12:57.693Z,9.00
2018-11-02T17:15:26.554Z,8.90
2018-11-02T17:17:56.599Z,8.90
2018-11-02T17:20:25.385Z,8.80
2018-11-02T17:23:10.829Z,8.80
2018-11-02T17:25:40.683Z,8.80
2018-11-02T17:28:22.249Z,8.80
2018-11-02T17:30:53.786Z,8.80
2018-11-02T17:33:22.670Z,8.80
2018-11-02T17:35:51.540Z,8.80
2018-11-02T17:38:21.560Z,8.80
2018-11-02T17:40:50.405Z,8.80
2018-11-02T17:43:19.194Z,8.80
2018-11-02T17:45:48.158Z,8.80
2018-11-02T17:48:17.045Z,8.70
2018-11-02T17:50:46.554Z,8.70
2018-11-02T17:53:21.297Z,8.70
2018-11-02T17:55:50.091Z,8.70
2018-11-02T17:58:19.110Z,8.60
2018-11-02T18:00:48.180Z,8.60
2018-11-02T18:03:17.226Z,8.70
2018-11-02T18:05:46.275Z,8.70
2018-11-02T18:08:16.109Z,8.70
2018-11-02T18:10:45.037Z,8.70
2018-11-02T18:13:16.429Z,8.70
2018-11-02T18:15:45.462Z,8.80
2018-11-02T18:18:14.364Z,8.80
2018-11-02T18:20:43.332Z,8.80
2018-11-02T18:23:12.286Z,8.80
2018-11-02T18:25:58.992Z,8.70
2018-11-02T18:28:28.657Z,8.60
2018-11-02T18:30:57.767Z,8.70
2018-11-02T18:33:26.705Z,8.70
2018-11-02T18:35:55.771Z,8.60
2018-11-02T18:38:26.634Z,8.60
2018-11-02T18:40:55.473Z,8.60
2018-11-02T18:43:24.441Z,8.60
2018-11-02T18:45:53.260Z,8.60
2018-11-02T18:48:22.451Z,8.60
2018-11-02T18:50:51.277Z,8.60
2018-11-02T18:53:20.192Z,8.60
2018-11-02T18:55:49.082Z,8.60
2018-11-02T18:58:17.977Z,8.60
2018-11-02T19:00:46.978Z,8.60
2018-11-02T19:03:15.821Z,8.50
2018-11-02T19:05:50.881Z,8.50
2018-11-02T19:08:19.737Z,8.40
2018-11-02T19:10:49.335Z,8.40
2018-11-02T19:13:18.312Z,8.40
2018-11-02T19:15:47.152Z,8.40
2018-11-02T19:18:17.097Z,8.40
2018-11-02T19:20:47.112Z,8.50
2018-11-02T19:23:16.217Z,8.50
2018-11-02T19:25:45.088Z,8.50
2018-11-02T19:28:23.760Z,8.60
2018-11-02T19:30:52.739Z,8.60
2018-11-02T19:33:27.708Z,8.60
2018-11-02T19:35:56.842Z,8.60
2018-11-02T19:38:36.872Z,8.60
2018-11-02T19:41:06.004Z,8.60
2018-11-02T19:43:35.724Z,8.50
2018-11-02T19:46:04.707Z,8.50
2018-11-02T19:48:33.712Z,8.50
2018-11-02T19:51:02.658Z,8.40
2018-11-02T19:53:34.257Z,8.40
2018-11-02T19:56:03.198Z,8.40
2018-11-02T19:58:32.086Z,8.30
2018-11-02T20:01:01.078Z,8.30
2018-11-02T20:03:32.081Z,8.30
2018-11-02T20:06:12.126Z,8.30
2018-11-02T20:08:47.726Z,8.30
2018-11-02T20:11:16.450Z,8.20
2018-11-02T20:13:45.518Z,8.20
2018-11-02T20:16:14.348Z,8.20
2018-11-02T20:18:43.299Z,8.30
2018-11-02T20:21:12.249Z,8.30
2018-11-02T20:23:41.313Z,8.30
2018-11-02T20:26:10.228Z,8.30
2018-11-02T20:28:39.166Z,8.30
2018-11-02T20:31:08.176Z,8.30
2018-11-02T20:33:37.089Z,8.30
2018-11-02T20:36:06.462Z,8.30
2018-11-02T20:38:35.838Z,8.30
2018-11-02T20:41:04.912Z,8.20
2018-11-02T20:43:34.473Z,8.20
2018-11-02T20:46:03.471Z,8.20
2018-11-02T20:48:32.365Z,8.20
2018-11-02T20:51:01.945Z,8.30
2018-11-02T20:53:31.453Z,8.30
2018-11-02T20:56:00.309Z,8.20
2018-11-02T20:58:29.219Z,8.20
2018-11-02T21:00:58.122Z,8.20
2018-11-02T21:03:27.013Z,8.10
2018-11-02T21:05:55.850Z,8.10
2018-11-02T21:08:24.763Z,8.10
2018-11-02T21:10:53.720Z,8.10
2018-11-02T21:13:23.090Z,8.10
2018-11-02T21:15:52.266Z,8.10
2018-11-02T21:18:21.509Z,8.10
2018-11-02T21:20:50.875Z,8.10
2018-11-02T21:23:19.574Z,8.10
2018-11-02T21:25:48.476Z,8.10
2018-11-02T21:28:17.746Z,8.10
2018-11-02T21:30:46.602Z,8.10
2018-11-02T21:33:15.600Z,8.00
2018-11-02T21:35:50.098Z,8.00
2018-11-02T21:38:19.237Z,8.00
2018-11-02T21:40:48.084Z,8.00
2018-11-02T21:43:17.999Z,8.00
2018-11-02T21:45:46.934Z,8.00
2018-11-02T21:48:15.865Z,8.00
2018-11-02T21:50:45.419Z,7.90
2018-11-02T21:53:14.490Z,7.90
2018-11-02T21:55:43.391Z,7.90
2018-11-02T21:58:12.378Z,7.90
2018-11-02T22:00:41.866Z,7.90
2018-11-02T22:03:10.703Z,7.90
2018-11-02T22:05:39.531Z,7.90
2018-11-02T22:08:09.003Z,7.90
2018-11-02T22:10:38.074Z,7.90
2018-11-02T22:13:07.098Z,7.90
2018-11-02T22:15:35.944Z,7.90
2018-11-02T22:18:04.862Z,7.90
2018-11-02T22:20:33.701Z,8.00
2018-11-02T22:23:02.703Z,8.00
2018-11-02T22:25:31.590Z,8.00
2018-11-02T22:28:00.582Z,8.00
2018-11-02T22:30:29.459Z,8.00
2018-11-02T22:32:58.231Z,8.00
2018-11-02T22:35:27.044Z,7.90
2018-11-02T22:37:55.894Z,7.90
2018-11-02T22:40:24.803Z,7.90
2018-11-02T22:42:53.720Z,7.90
2018-11-02T22:45:30.258Z,8.00
2018-11-02T22:48:04.114Z,8.00
2018-11-02T22:50:33.058Z,8.00
2018-11-02T22:53:02.713Z,8.00
2018-11-02T22:55:31.514Z,8.00
2018-11-02T22:58:00.463Z,8.10
2018-11-02T23:00:29.435Z,8.10
2018-11-02T23:02:58.347Z,8.10
2018-11-02T23:05:27.965Z,8.10
2018-11-02T23:07:56.721Z,8.10
2018-11-02T23:10:26.256Z,8.10
2018-11-02T23:12:55.167Z,8.10
2018-11-02T23:15:24.120Z,8.10
2018-11-02T23:17:53.587Z,8.10
2018-11-02T23:20:22.494Z,8.10
2018-11-02T23:22:51.503Z,8.10
2018-11-02T23:25:20.410Z,8.20
2018-11-02T23:27:49.249Z,8.10
2018-11-02T23:30:18.200Z,8.10
2018-11-02T23:32:47.028Z,8.10
2018-11-02T23:35:15.854Z,8.10
2018-11-02T23:37:44.868Z,8.10
2018-11-02T23:40:14.139Z,8.10
2018-11-02T23:42:43.011Z,8.10
2018-11-02T23:45:12.568Z,8.10
2018-11-02T23:47:45.572Z,8.20
2018-11-02T23:50:14.498Z,8.10
2018-11-02T23:52:44.009Z,8.10
2018-11-02T23:55:12.977Z,8.10
2018-11-02T23:57:41.921Z,8.10
